Terminal Aerodrome Forecast
Issued by NWS Wichita, KS

Home | Current Version | Previous Version | Text Only | Print | Product List | Glossary On
Versions: 1 2 3 4 5 6 7 8 9 10 11 12 13 14 15 16 17 18 19 20 21 22 23 24 25 26 27 28
952
FTUS43 KICT 251334 AAA
TAFICT
TAF AMD
KICT 251334Z 2514/2612 16012G20KT P6SM SCT007 OVC025
     FM251600 18018G25KT P6SM BKN035
     FM251800 19015G23KT P6SM SCT080
     FM260200 17011KT P6SM SCT250
     FM260600 17012KT P6SM SCT040
     FM260800 17011KT P6SM BKN008=

USA.gov is the U.S. government's official web portal to all federal, state and local government web resources and services.